createdAt,value
2023-01-21T00:04:18.726Z,-1.00
2023-01-21T00:09:23.844Z,-1.03
2023-01-21T00:14:27.565Z,-1.03
2023-01-21T00:19:32.029Z,-1.06
2023-01-21T00:24:37.139Z,-1.09
2023-01-21T00:29:40.901Z,-1.10
2023-01-21T00:34:44.855Z,-1.11
2023-01-21T00:39:50.048Z,-1.15
2023-01-21T00:44:53.811Z,-1.20
2023-01-21T00:49:57.583Z,-1.19
2023-01-21T00:55:02.771Z,-1.19
2023-01-21T01:00:11.010Z,-1.22
2023-01-21T01:05:14.927Z,-1.23
2023-01-21T01:10:20.066Z,-1.25
2023-01-21T01:15:23.835Z,-1.26
2023-01-21T01:20:27.649Z,-1.26
2023-01-21T01:25:34.622Z,-1.25
2023-01-21T01:30:38.456Z,-1.26
2023-01-21T01:35:46.971Z,-1.30
2023-01-21T01:40:53.771Z,-1.34
2023-01-21T01:45:57.556Z,-1.35
2023-01-21T01:51:07.393Z,-1.38
2023-01-21T01:56:13.185Z,-1.38
2023-01-21T02:01:17.201Z,-1.44
2023-01-21T02:06:21.254Z,-1.42
2023-01-21T02:11:26.282Z,-1.45
2023-01-21T02:16:49.403Z,-1.46
2023-01-21T02:22:03.126Z,-1.55
2023-01-21T02:27:37.477Z,-1.55
2023-01-21T02:33:13.479Z,-1.56
2023-01-21T02:38:27.405Z,-1.61
2023-01-21T02:43:38.119Z,-1.62
2023-01-21T02:48:49.550Z,-1.65
2023-01-21T02:53:53.300Z,-1.67
2023-01-21T02:59:01.217Z,-1.72
2023-01-21T03:04:27.240Z,-1.77
2023-01-21T03:09:32.523Z,-1.78
2023-01-21T03:14:59.111Z,-1.77
2023-01-21T03:20:11.608Z,-1.78
2023-01-21T03:25:17.929Z,-1.78
2023-01-21T03:30:26.523Z,-1.78
2023-01-21T03:35:35.188Z,-1.78
2023-01-21T03:40:44.494Z,-1.82
2023-01-21T03:45:56.205Z,-1.84
2023-01-21T03:51:08.454Z,-1.88
2023-01-21T03:56:12.290Z,-1.93
2023-01-21T04:01:16.034Z,-1.96
2023-01-21T04:06:23.504Z,-1.96
2023-01-21T04:11:27.225Z,-1.98
2023-01-21T04:16:31.404Z,-1.97
2023-01-21T04:21:36.509Z,-1.97
2023-01-21T04:26:40.258Z,-2.01
2023-01-21T04:31:44.049Z,-2.06
2023-01-21T04:36:49.295Z,-2.05
2023-01-21T04:41:53.049Z,-2.10
2023-01-21T04:46:56.750Z,-2.12
2023-01-21T04:52:01.773Z,-2.12
2023-01-21T04:57:05.936Z,-2.17
2023-01-21T05:02:10.028Z,-2.18
2023-01-21T05:07:15.818Z,-2.15
2023-01-21T05:12:19.601Z,-2.16
2023-01-21T05:17:23.342Z,-2.19
2023-01-21T05:22:28.421Z,-2.20
2023-01-21T05:27:32.582Z,-2.18
2023-01-21T05:32:36.719Z,-2.21
2023-01-21T05:37:41.988Z,-2.20
2023-01-21T05:42:45.697Z,-2.20
2023-01-21T05:47:49.413Z,-2.22
2023-01-21T05:52:54.467Z,-2.24
2023-01-21T05:57:58.245Z,-2.26
2023-01-21T06:03:02.190Z,-2.30
2023-01-21T06:08:07.452Z,-2.32
2023-01-21T06:13:13.150Z,-2.30
2023-01-21T06:18:17.111Z,-2.31
2023-01-21T06:23:22.183Z,-2.32
2023-01-21T06:28:25.911Z,-2.37
2023-01-21T06:33:29.728Z,-2.40
2023-01-21T06:38:36.251Z,-2.39
2023-01-21T06:43:40.032Z,-2.45
2023-01-21T06:48:43.823Z,-2.45
2023-01-21T06:53:48.900Z,-2.48
2023-01-21T06:58:52.628Z,-2.52
2023-01-21T07:03:56.355Z,-2.53
2023-01-21T07:09:01.498Z,-2.56
2023-01-21T07:14:05.289Z,-2.55
2023-01-21T07:19:09.038Z,-2.58
2023-01-21T07:24:14.137Z,-2.60
2023-01-21T07:29:17.976Z,-2.63
2023-01-21T07:34:21.766Z,-2.62
2023-01-21T07:39:26.935Z,-2.62
2023-01-21T07:44:30.722Z,-2.65
2023-01-21T07:49:34.456Z,-2.66
2023-01-21T07:54:39.501Z,-2.64
2023-01-21T07:59:43.272Z,-2.58
2023-01-21T08:04:47.064Z,-2.56
2023-01-21T08:09:52.151Z,-2.53
2023-01-21T08:14:55.885Z,-2.49
2023-01-21T08:19:59.606Z,-2.43
2023-01-21T08:25:05.677Z,-2.34
2023-01-21T08:30:10.740Z,-2.26
2023-01-21T08:35:14.644Z,-2.16
2023-01-21T08:40:19.821Z,-2.09
2023-01-21T08:45:23.771Z,-2.01
2023-01-21T08:50:27.589Z,-1.92
2023-01-21T08:55:32.716Z,-1.89
2023-01-21T09:00:36.751Z,-1.89
2023-01-21T09:05:40.554Z,-1.78
2023-01-21T09:11:03.868Z,-1.75
2023-01-21T09:16:09.750Z,-1.68
2023-01-21T09:21:13.809Z,-1.62
2023-01-21T09:26:20.391Z,-1.48
2023-01-21T09:31:25.263Z,-1.47
2023-01-21T09:36:30.796Z,-1.43
2023-01-21T09:41:38.652Z,-1.33
2023-01-21T09:46:45.448Z,-1.36
2023-01-21T09:51:58.395Z,-1.41
2023-01-21T09:57:20.346Z,-1.31
2023-01-21T10:02:31.094Z,-1.21
2023-01-21T10:07:39.856Z,-1.13
2023-01-21T10:13:05.776Z,-1.09
2023-01-21T10:18:13.125Z,-1.04
2023-01-21T10:23:22.692Z,-1.00
2023-01-21T10:28:30.630Z,-0.94
2023-01-21T10:33:35.014Z,-0.93
2023-01-21T10:38:46.260Z,-0.97
2023-01-21T10:43:59.173Z,-0.86
2023-01-21T10:49:20.893Z,-0.77
2023-01-21T10:54:34.136Z,-0.69
2023-01-21T10:59:41.342Z,-0.69
2023-01-21T11:04:45.926Z,-0.73
2023-01-21T11:09:50.221Z,-0.60
2023-01-21T11:14:58.430Z,-0.57
2023-01-21T11:20:04.862Z,-0.47
2023-01-21T11:25:25.593Z,-0.32
2023-01-21T11:30:49.460Z,-0.12
2023-01-21T11:35:58.549Z,0.01
2023-01-21T11:41:10.702Z,0.10
2023-01-21T11:46:27.645Z,0.28
2023-01-21T11:51:31.510Z,0.46
2023-01-21T11:56:36.173Z,0.43
2023-01-21T12:01:41.321Z,0.82
2023-01-21T12:06:51.575Z,0.95
2023-01-21T12:12:21.792Z,1.11
2023-01-21T12:17:42.395Z,1.20
2023-01-21T12:22:58.643Z,1.39
2023-01-21T12:28:11.663Z,1.58
2023-01-21T12:33:20.711Z,1.73
2023-01-21T12:38:30.102Z,1.87
2023-01-21T12:43:37.746Z,1.67
2023-01-21T12:48:48.299Z,2.07
2023-01-21T12:53:58.399Z,2.46
2023-01-21T12:59:09.979Z,3.31
2023-01-21T13:04:29.949Z,5.26
2023-01-21T13:09:40.649Z,7.02
2023-01-21T13:14:48.512Z,8.19
2023-01-21T13:19:53.673Z,9.00
2023-01-21T13:25:12.506Z,9.52
2023-01-21T13:30:24.793Z,9.21
2023-01-21T13:35:38.672Z,9.44
2023-01-21T13:40:53.718Z,9.74
2023-01-21T13:46:08.443Z,9.79
2023-01-21T13:51:27.797Z,9.50
2023-01-21T13:56:47.407Z,7.98
2023-01-21T14:01:57.593Z,6.83
2023-01-21T14:07:09.401Z,6.15
2023-01-21T14:12:18.974Z,5.91
2023-01-21T14:17:49.192Z,5.54
2023-01-21T14:23:21.595Z,5.00
2023-01-21T14:28:34.977Z,4.90
2023-01-21T14:33:45.251Z,4.87
2023-01-21T14:39:04.605Z,4.53
2023-01-21T14:44:46.183Z,4.35
2023-01-21T14:49:52.934Z,4.00
2023-01-21T14:54:56.838Z,3.61
2023-01-21T15:00:13.799Z,3.42
2023-01-21T15:05:25.515Z,3.14
2023-01-21T15:10:33.899Z,3.07
2023-01-21T15:16:02.603Z,2.92
2023-01-21T15:21:45.377Z,2.73
2023-01-21T15:32:27.522Z,2.74
2023-01-21T15:37:34.026Z,2.74
2023-01-21T15:42:49.081Z,2.12
2023-01-21T15:48:41.823Z,1.89
2023-01-21T15:54:13.255Z,1.81
2023-01-21T15:59:35.960Z,1.76
2023-01-21T16:04:49.389Z,1.68
2023-01-21T16:10:06.060Z,1.54
2023-01-21T16:15:18.947Z,1.47
2023-01-21T16:20:25.291Z,1.40
2023-01-21T16:25:29.107Z,1.39
2023-01-21T16:30:32.986Z,1.35
2023-01-21T16:35:46.566Z,1.40
2023-01-21T16:40:52.055Z,1.28
2023-01-21T16:45:58.867Z,1.28
2023-01-21T16:51:05.002Z,1.27
2023-01-21T16:56:25.960Z,1.30
2023-01-21T17:01:31.185Z,1.32
2023-01-21T17:06:36.658Z,1.24
2023-01-21T17:11:46.669Z,1.20
2023-01-21T17:16:50.605Z,1.17
2023-01-21T17:22:00.443Z,1.14
2023-01-21T17:27:09.070Z,1.08
2023-01-21T17:32:26.520Z,1.00
2023-01-21T17:37:45.040Z,0.97
2023-01-21T17:42:48.827Z,0.94
2023-01-21T17:48:08.300Z,0.83
2023-01-21T17:53:22.635Z,0.78
2023-01-21T17:58:44.956Z,0.71
2023-01-21T18:03:48.752Z,0.67
2023-01-21T18:08:54.195Z,0.59
2023-01-21T18:13:59.241Z,0.54
2023-01-21T18:19:02.981Z,0.38
2023-01-21T18:24:11.331Z,0.37
2023-01-21T18:29:15.900Z,0.39
2023-01-21T18:34:19.872Z,0.29
2023-01-21T18:39:25.520Z,0.25
2023-01-21T18:44:29.333Z,0.26
2023-01-21T18:49:33.045Z,0.32
2023-01-21T18:54:38.168Z,0.27
2023-01-21T18:59:41.855Z,0.24
2023-01-21T19:04:46.494Z,0.24
2023-01-21T19:09:51.628Z,0.16
2023-01-21T19:14:55.403Z,0.09
2023-01-21T19:19:59.532Z,0.12
2023-01-21T19:25:05.115Z,0.16
2023-01-21T19:30:22.966Z,0.18
2023-01-21T19:35:29.775Z,0.13
2023-01-21T19:40:34.869Z,0.07
2023-01-21T19:45:38.664Z,0.07
2023-01-21T19:50:43.120Z,0.07
2023-01-21T19:55:49.196Z,0.08
2023-01-21T20:00:54.513Z,0.08
2023-01-21T20:06:03.133Z,0.07
2023-01-21T20:11:08.251Z,0.05
2023-01-21T20:16:16.533Z,0.06
2023-01-21T20:21:20.308Z,-0.03
2023-01-21T20:26:28.550Z,-0.02
2023-01-21T20:31:32.327Z,0.02
2023-01-21T20:36:38.025Z,-0.04
2023-01-21T20:41:43.499Z,-0.10
2023-01-21T20:46:47.449Z,-0.14
2023-01-21T20:51:51.273Z,-0.17
2023-01-21T20:56:56.349Z,-0.20
2023-01-21T21:02:00.223Z,-0.29
2023-01-21T21:07:04.135Z,-0.24
2023-01-21T21:12:09.250Z,-0.33
2023-01-21T21:17:13.245Z,-0.33
2023-01-21T21:22:17.251Z,-0.31
2023-01-21T21:27:22.312Z,-0.43
2023-01-21T21:32:26.082Z,-0.43
2023-01-21T21:37:29.846Z,-0.47
2023-01-21T21:42:52.408Z,-0.43
2023-01-21T21:48:29.660Z,-0.40
2023-01-21T21:53:33.453Z,-0.44
2023-01-21T21:58:38.625Z,-0.51
2023-01-21T22:03:42.685Z,-0.52
2023-01-21T22:08:47.134Z,-0.51
2023-01-21T22:13:53.486Z,-0.51
2023-01-21T22:18:58.702Z,-0.47
2023-01-21T22:24:02.989Z,-0.55
2023-01-21T22:29:08.283Z,-0.60
2023-01-21T22:34:12.424Z,-0.56
2023-01-21T22:39:16.477Z,-0.57
2023-01-21T22:44:21.613Z,-0.53
2023-01-21T22:49:25.383Z,-0.53
2023-01-21T22:54:29.201Z,-0.48
2023-01-21T22:59:34.423Z,-0.57
2023-01-21T23:04:38.230Z,-0.63
2023-01-21T23:09:41.981Z,-0.63
2023-01-21T23:14:47.357Z,-0.61
2023-01-21T23:19:51.188Z,-0.65
2023-01-21T23:24:54.917Z,-0.63
2023-01-21T23:30:00.069Z,-0.62
2023-01-21T23:35:03.816Z,-0.66
2023-01-21T23:40:09.092Z,-0.73
2023-01-21T23:45:14.150Z,-0.73
2023-01-21T23:50:18.432Z,-0.71
2023-01-21T23:55:22.386Z,-0.71
